Disclaimer

Please do not use the information listed here in-flight or in-navigation, as they are not provided to us by the airports but are provided by volunteers, so they might be outdated.

Search


Regions


Airport information page

No radio frequency information is available.

Airport informations:
Latitude: 19° 04' 48.10" S
Longitude: 169° 55' 32.30" W
Elevation: 209 feet - 64 meters
Operating hours: Remarks
Operating agency: Civil government, landing fees and diplomatic clearance may be required
Timezone: UTC-11
Fuel: Jet A1+, Jet A1 with icing inhibitor.

Runway information:
10/28 - 7660 x 148 feet< - >2335 x 45 meters

Recent METARs:
NIUE 141600Z AUTO 12013KT //// // ///////// 24/23 Q1010
NIUE 141700Z AUTO 15010KT //// // ///////// 23/22 Q1011.0
NIUE 141700Z AUTO 15010KT //// // ///////// 23/22 Q1011.0

Airport on the map: